sensor_id;sensor_type;location;lat;lon;timestamp;P1;durP1;ratioP1;P2;durP2;ratioP2
11425;SDS011;5769;47.998;7.788;2023-04-08T00:00:15;4.03;;;3.92;;
11425;SDS011;5769;47.998;7.788;2023-04-08T00:02:43;4.55;;;4.35;;
11425;SDS011;5769;47.998;7.788;2023-04-08T00:05:10;4.20;;;4.00;;
11425;SDS011;5769;47.998;7.788;2023-04-08T00:07:37;4.07;;;3.97;;
11425;SDS011;5769;47.998;7.788;2023-04-08T00:10:06;3.45;;;3.35;;
11425;SDS011;5769;47.998;7.788;2023-04-08T00:12:34;2.15;;;2.05;;
11425;SDS011;5769;47.998;7.788;2023-04-08T00:15:01;2.40;;;2.30;;
11425;SDS011;5769;47.998;7.788;2023-04-08T00:17:28;3.03;;;2.92;;
11425;SDS011;5769;47.998;7.788;2023-04-08T00:19:55;3.05;;;2.95;;
11425;SDS011;5769;47.998;7.788;2023-04-08T00:22:22;1.88;;;1.77;;
11425;SDS011;5769;47.998;7.788;2023-04-08T00:24:49;1.42;;;1.42;;
11425;SDS011;5769;47.998;7.788;2023-04-08T00:27:18;1.75;;;1.75;;
11425;SDS011;5769;47.998;7.788;2023-04-08T00:29:45;1.67;;;1.67;;
11425;SDS011;5769;47.998;7.788;2023-04-08T00:32:12;2.25;;;2.15;;
11425;SDS011;5769;47.998;7.788;2023-04-08T00:34:39;1.60;;;1.55;;
11425;SDS011;5769;47.998;7.788;2023-04-08T00:37:07;2.33;;;2.22;;
11425;SDS011;5769;47.998;7.788;2023-04-08T00:39:34;1.85;;;1.85;;
11425;SDS011;5769;47.998;7.788;2023-04-08T00:42:01;0.22;;;0.22;;
11425;SDS011;5769;47.998;7.788;2023-04-08T00:44:29;0.60;;;0.60;;
11425;SDS011;5769;47.998;7.788;2023-04-08T00:46:56;2.90;;;2.80;;
11425;SDS011;5769;47.998;7.788;2023-04-08T00:49:24;3.03;;;2.92;;
11425;SDS011;5769;47.998;7.788;2023-04-08T00:51:52;3.20;;;3.10;;
11425;SDS011;5769;47.998;7.788;2023-04-08T00:54:19;3.28;;;3.17;;
11425;SDS011;5769;47.998;7.788;2023-04-08T00:56:46;3.10;;;3.00;;
11425;SDS011;5769;47.998;7.788;2023-04-08T00:59:13;3.17;;;3.08;;
11425;SDS011;5769;47.998;7.788;2023-04-08T01:01:43;3.63;;;3.53;;
11425;SDS011;5769;47.998;7.788;2023-04-08T01:04:12;2.13;;;2.03;;
11425;SDS011;5769;47.998;7.788;2023-04-08T01:06:43;2.75;;;2.65;;
11425;SDS011;5769;47.998;7.788;2023-04-08T01:09:15;3.35;;;3.25;;
11425;SDS011;5769;47.998;7.788;2023-04-08T01:11:45;3.42;;;3.33;;
11425;SDS011;5769;47.998;7.788;2023-04-08T01:14:15;3.45;;;3.35;;
11425;SDS011;5769;47.998;7.788;2023-04-08T01:16:44;3.55;;;3.45;;
11425;SDS011;5769;47.998;7.788;2023-04-08T01:19:23;2.65;;;2.55;;
11425;SDS011;5769;47.998;7.788;2023-04-08T01:21:52;3.22;;;3.13;;
11425;SDS011;5769;47.998;7.788;2023-04-08T01:24:22;3.40;;;3.30;;
11425;SDS011;5769;47.998;7.788;2023-04-08T01:26:53;3.25;;;3.15;;
11425;SDS011;5769;47.998;7.788;2023-04-08T01:29:22;1.75;;;1.75;;
11425;SDS011;5769;47.998;7.788;2023-04-08T01:31:50;1.85;;;1.75;;
11425;SDS011;5769;47.998;7.788;2023-04-08T01:34:18;0.88;;;0.88;;
11425;SDS011;5769;47.998;7.788;2023-04-08T01:36:45;0.85;;;0.85;;
11425;SDS011;5769;47.998;7.788;2023-04-08T01:39:13;0.88;;;0.88;;
11425;SDS011;5769;47.998;7.788;2023-04-08T01:41:40;0.85;;;0.85;;
11425;SDS011;5769;47.998;7.788;2023-04-08T01:44:08;0.90;;;0.90;;
11425;SDS011;5769;47.998;7.788;2023-04-08T01:46:36;0.60;;;0.60;;
11425;SDS011;5769;47.998;7.788;2023-04-08T01:49:04;0.63;;;0.63;;
11425;SDS011;5769;47.998;7.788;2023-04-08T01:51:32;1.30;;;1.30;;
11425;SDS011;5769;47.998;7.788;2023-04-08T01:54:00;1.98;;;1.90;;
11425;SDS011;5769;47.998;7.788;2023-04-08T01:56:27;1.52;;;1.52;;
11425;SDS011;5769;47.998;7.788;2023-04-08T01:58:55;1.63;;;1.63;;
11425;SDS011;5769;47.998;7.788;2023-04-08T02:01:25;1.08;;;1.08;;
11425;SDS011;5769;47.998;7.788;2023-04-08T02:03:53;1.08;;;1.08;;
11425;SDS011;5769;47.998;7.788;2023-04-08T02:06:21;1.45;;;1.45;;
11425;SDS011;5769;47.998;7.788;2023-04-08T02:08:48;1.33;;;1.33;;
11425;SDS011;5769;47.998;7.788;2023-04-08T02:11:15;1.92;;;1.83;;
11425;SDS011;5769;47.998;7.788;2023-04-08T02:13:43;1.95;;;1.95;;
11425;SDS011;5769;47.998;7.788;2023-04-08T02:16:12;1.30;;;1.30;;
11425;SDS011;5769;47.998;7.788;2023-04-08T02:18:44;1.52;;;1.48;;
11425;SDS011;5769;47.998;7.788;2023-04-08T02:21:15;1.88;;;1.88;;
11425;SDS011;5769;47.998;7.788;2023-04-08T02:23:44;2.13;;;2.03;;
11425;SDS011;5769;47.998;7.788;2023-04-08T02:26:15;2.25;;;2.17;;
11425;SDS011;5769;47.998;7.788;2023-04-08T02:28:43;2.10;;;2.00;;
11425;SDS011;5769;47.998;7.788;2023-04-08T02:31:10;2.47;;;2.38;;
11425;SDS011;5769;47.998;7.788;2023-04-08T02:33:38;2.80;;;2.70;;
11425;SDS011;5769;47.998;7.788;2023-04-08T02:36:07;3.22;;;3.13;;
11425;SDS011;5769;47.998;7.788;2023-04-08T02:38:35;2.33;;;2.25;;
11425;SDS011;5769;47.998;7.788;2023-04-08T02:41:02;2.90;;;2.80;;
11425;SDS011;5769;47.998;7.788;2023-04-08T02:43:29;2.70;;;2.60;;
11425;SDS011;5769;47.998;7.788;2023-04-08T02:45:56;2.08;;;1.98;;
11425;SDS011;5769;47.998;7.788;2023-04-08T02:48:24;2.05;;;2.00;;
11425;SDS011;5769;47.998;7.788;2023-04-08T02:50:51;1.83;;;1.83;;
11425;SDS011;5769;47.998;7.788;2023-04-08T02:53:20;2.25;;;2.15;;
11425;SDS011;5769;47.998;7.788;2023-04-08T02:55:47;2.20;;;2.10;;
11425;SDS011;5769;47.998;7.788;2023-04-08T02:58:15;0.88;;;0.88;;
11425;SDS011;5769;47.998;7.788;2023-04-08T03:00:42;1.05;;;1.05;;
11425;SDS011;5769;47.998;7.788;2023-04-08T03:03:09;1.25;;;1.25;;
11425;SDS011;5769;47.998;7.788;2023-04-08T03:05:36;1.92;;;1.85;;
11425;SDS011;5769;47.998;7.788;2023-04-08T03:08:03;1.73;;;1.73;;
11425;SDS011;5769;47.998;7.788;2023-04-08T03:10:32;1.83;;;1.83;;
11425;SDS011;5769;47.998;7.788;2023-04-08T03:12:59;1.98;;;1.92;;
11425;SDS011;5769;47.998;7.788;2023-04-08T03:15:26;2.13;;;2.03;;
11425;SDS011;5769;47.998;7.788;2023-04-08T03:17:53;1.45;;;1.45;;
11425;SDS011;5769;47.998;7.788;2023-04-08T03:20:20;1.90;;;1.80;;
11425;SDS011;5769;47.998;7.788;2023-04-08T03:22:47;2.17;;;2.08;;
11425;SDS011;5769;47.998;7.788;2023-04-08T03:25:14;2.25;;;2.15;;
11425;SDS011;5769;47.998;7.788;2023-04-08T03:27:43;2.38;;;2.28;;
11425;SDS011;5769;47.998;7.788;2023-04-08T03:30:10;2.40;;;2.30;;
11425;SDS011;5769;47.998;7.788;2023-04-08T03:32:37;3.15;;;3.05;;
11425;SDS011;5769;47.998;7.788;2023-04-08T03:35:04;4.10;;;4.00;;
11425;SDS011;5769;47.998;7.788;2023-04-08T03:37:32;4.07;;;3.92;;
11425;SDS011;5769;47.998;7.788;2023-04-08T03:39:59;3.85;;;3.75;;
11425;SDS011;5769;47.998;7.788;2023-04-08T03:42:26;4.00;;;3.90;;
11425;SDS011;5769;47.998;7.788;2023-04-08T03:44:57;3.83;;;3.72;;
11425;SDS011;5769;47.998;7.788;2023-04-08T03:47:25;3.67;;;3.58;;
11425;SDS011;5769;47.998;7.788;2023-04-08T03:49:52;3.17;;;3.08;;
11425;SDS011;5769;47.998;7.788;2023-04-08T03:52:19;2.55;;;2.45;;
11425;SDS011;5769;47.998;7.788;2023-04-08T03:54:46;2.53;;;2.42;;
11425;SDS011;5769;47.998;7.788;2023-04-08T03:57:14;3.08;;;2.97;;
11425;SDS011;5769;47.998;7.788;2023-04-08T03:59:41;2.85;;;2.75;;
11425;SDS011;5769;47.998;7.788;2023-04-08T04:02:09;2.63;;;2.53;;
11425;SDS011;5769;47.998;7.788;2023-04-08T04:04:36;2.47;;;2.38;;
11425;SDS011;5769;47.998;7.788;2023-04-08T04:07:03;1.95;;;1.92;;
11425;SDS011;5769;47.998;7.788;2023-04-08T04:09:30;1.35;;;1.35;;
11425;SDS011;5769;47.998;7.788;2023-04-08T04:11:57;0.93;;;0.93;;
11425;SDS011;5769;47.998;7.788;2023-04-08T04:14:24;1.48;;;1.48;;
11425;SDS011;5769;47.998;7.788;2023-04-08T04:16:51;1.48;;;1.48;;
11425;SDS011;5769;47.998;7.788;2023-04-08T04:19:20;0.80;;;0.80;;
11425;SDS011;5769;47.998;7.788;2023-04-08T04:21:47;2.10;;;2.00;;
11425;SDS011;5769;47.998;7.788;2023-04-08T04:24:14;2.28;;;2.17;;
11425;SDS011;5769;47.998;7.788;2023-04-08T04:26:41;2.65;;;2.55;;
11425;SDS011;5769;47.998;7.788;2023-04-08T04:29:08;2.50;;;2.40;;
11425;SDS011;5769;47.998;7.788;2023-04-08T04:31:35;2.60;;;2.50;;
11425;SDS011;5769;47.998;7.788;2023-04-08T04:34:02;2.70;;;2.60;;
11425;SDS011;5769;47.998;7.788;2023-04-08T04:36:31;2.67;;;2.58;;
11425;SDS011;5769;47.998;7.788;2023-04-08T04:38:58;2.05;;;2.05;;
11425;SDS011;5769;47.998;7.788;2023-04-08T04:41:25;2.00;;;1.98;;
11425;SDS011;5769;47.998;7.788;2023-04-08T04:43:52;2.58;;;2.47;;
11425;SDS011;5769;47.998;7.788;2023-04-08T04:46:19;2.50;;;2.40;;
11425;SDS011;5769;47.998;7.788;2023-04-08T04:48:46;2.85;;;2.75;;
11425;SDS011;5769;47.998;7.788;2023-04-08T04:51:13;2.75;;;2.65;;
11425;SDS011;5769;47.998;7.788;2023-04-08T04:53:41;2.63;;;2.53;;
11425;SDS011;5769;47.998;7.788;2023-04-08T04:56:08;3.60;;;3.50;;
11425;SDS011;5769;47.998;7.788;2023-04-08T04:58:35;3.10;;;3.00;;
11425;SDS011;5769;47.998;7.788;2023-04-08T05:01:02;3.13;;;3.03;;
11425;SDS011;5769;47.998;7.788;2023-04-08T05:03:30;2.85;;;2.75;;
11425;SDS011;5769;47.998;7.788;2023-04-08T05:05:57;4.00;;;3.90;;
11425;SDS011;5769;47.998;7.788;2023-04-08T05:08:24;3.55;;;3.45;;
11425;SDS011;5769;47.998;7.788;2023-04-08T05:10:53;3.65;;;3.55;;
11425;SDS011;5769;47.998;7.788;2023-04-08T05:13:20;3.00;;;2.90;;
11425;SDS011;5769;47.998;7.788;2023-04-08T05:15:47;3.15;;;3.05;;
11425;SDS011;5769;47.998;7.788;2023-04-08T05:18:14;3.17;;;3.08;;
11425;SDS011;5769;47.998;7.788;2023-04-08T05:20:41;3.10;;;3.00;;
11425;SDS011;5769;47.998;7.788;2023-04-08T05:23:08;2.88;;;2.78;;
11425;SDS011;5769;47.998;7.788;2023-04-08T05:25:35;2.88;;;2.78;;
11425;SDS011;5769;47.998;7.788;2023-04-08T05:28:04;3.05;;;2.95;;
11425;SDS011;5769;47.998;7.788;2023-04-08T05:30:31;2.72;;;2.63;;
11425;SDS011;5769;47.998;7.788;2023-04-08T05:32:58;2.58;;;2.47;;
11425;SDS011;5769;47.998;7.788;2023-04-08T05:35:25;3.35;;;3.25;;
11425;SDS011;5769;47.998;7.788;2023-04-08T05:37:52;2.65;;;2.55;;
11425;SDS011;5769;47.998;7.788;2023-04-08T05:40:20;2.83;;;2.72;;
11425;SDS011;5769;47.998;7.788;2023-04-08T05:42:47;0.85;;;0.85;;
11425;SDS011;5769;47.998;7.788;2023-04-08T05:45:15;0.85;;;0.85;;
11425;SDS011;5769;47.998;7.788;2023-04-08T05:47:42;0.98;;;0.98;;
11425;SDS011;5769;47.998;7.788;2023-04-08T05:50:09;0.95;;;0.95;;
11425;SDS011;5769;47.998;7.788;2023-04-08T05:52:40;1.08;;;1.08;;
11425;SDS011;5769;47.998;7.788;2023-04-08T05:55:10;1.10;;;1.10;;
11425;SDS011;5769;47.998;7.788;2023-04-08T05:57:41;1.25;;;1.25;;
11425;SDS011;5769;47.998;7.788;2023-04-08T06:00:11;1.33;;;1.33;;
11425;SDS011;5769;47.998;7.788;2023-04-08T06:02:43;2.28;;;2.17;;
11425;SDS011;5769;47.998;7.788;2023-04-08T06:05:14;1.67;;;1.60;;
11425;SDS011;5769;47.998;7.788;2023-04-08T06:07:47;1.80;;;1.70;;
11425;SDS011;5769;47.998;7.788;2023-04-08T06:10:15;1.13;;;1.13;;
11425;SDS011;5769;47.998;7.788;2023-04-08T06:12:47;1.63;;;1.63;;
11425;SDS011;5769;47.998;7.788;2023-04-08T06:15:20;1.85;;;1.75;;
11425;SDS011;5769;47.998;7.788;2023-04-08T06:17:51;2.03;;;1.92;;
11425;SDS011;5769;47.998;7.788;2023-04-08T06:20:24;2.45;;;2.35;;
11425;SDS011;5769;47.998;7.788;2023-04-08T06:22:52;2.50;;;2.40;;
11425;SDS011;5769;47.998;7.788;2023-04-08T06:25:20;2.45;;;2.35;;
11425;SDS011;5769;47.998;7.788;2023-04-08T06:27:47;2.83;;;2.72;;
11425;SDS011;5769;47.998;7.788;2023-04-08T06:30:20;3.10;;;3.00;;
11425;SDS011;5769;47.998;7.788;2023-04-08T06:32:48;2.80;;;2.70;;
11425;SDS011;5769;47.998;7.788;2023-04-08T06:35:25;5.00;;;4.80;;
11425;SDS011;5769;47.998;7.788;2023-04-08T06:37:52;3.28;;;3.17;;
11425;SDS011;5769;47.998;7.788;2023-04-08T06:40:25;2.78;;;2.67;;
11425;SDS011;5769;47.998;7.788;2023-04-08T06:42:53;3.03;;;2.92;;
11425;SDS011;5769;47.998;7.788;2023-04-08T06:45:23;2.83;;;2.72;;
11425;SDS011;5769;47.998;7.788;2023-04-08T06:47:57;2.85;;;2.75;;
11425;SDS011;5769;47.998;7.788;2023-04-08T06:50:37;2.80;;;2.70;;
11425;SDS011;5769;47.998;7.788;2023-04-08T06:53:10;3.20;;;3.10;;
11425;SDS011;5769;47.998;7.788;2023-04-08T06:55:37;3.15;;;3.05;;
11425;SDS011;5769;47.998;7.788;2023-04-08T06:58:08;3.10;;;3.00;;
11425;SDS011;5769;47.998;7.788;2023-04-08T07:00:35;3.28;;;3.17;;
11425;SDS011;5769;47.998;7.788;2023-04-08T07:03:04;2.65;;;2.55;;
11425;SDS011;5769;47.998;7.788;2023-04-08T07:05:36;2.53;;;2.42;;
11425;SDS011;5769;47.998;7.788;2023-04-08T07:08:03;2.90;;;2.80;;
11425;SDS011;5769;47.998;7.788;2023-04-08T07:10:33;1.15;;;1.15;;
11425;SDS011;5769;47.998;7.788;2023-04-08T07:13:11;0.50;;;0.50;;
11425;SDS011;5769;47.998;7.788;2023-04-08T07:15:39;0.40;;;0.40;;
11425;SDS011;5769;47.998;7.788;2023-04-08T07:18:07;0.45;;;0.45;;
11425;SDS011;5769;47.998;7.788;2023-04-08T07:20:46;0.45;;;0.45;;
11425;SDS011;5769;47.998;7.788;2023-04-08T07:23:23;0.60;;;0.60;;
11425;SDS011;5769;47.998;7.788;2023-04-08T07:25:52;0.70;;;0.70;;
11425;SDS011;5769;47.998;7.788;2023-04-08T07:28:21;0.70;;;0.70;;
11425;SDS011;5769;47.998;7.788;2023-04-08T07:30:51;0.70;;;0.70;;
11425;SDS011;5769;47.998;7.788;2023-04-08T07:33:21;1.00;;;1.00;;
11425;SDS011;5769;47.998;7.788;2023-04-08T07:35:54;0.95;;;0.95;;
11425;SDS011;5769;47.998;7.788;2023-04-08T07:38:31;1.00;;;1.00;;
11425;SDS011;5769;47.998;7.788;2023-04-08T07:41:02;0.95;;;0.95;;
11425;SDS011;5769;47.998;7.788;2023-04-08T07:43:29;0.77;;;0.77;;
11425;SDS011;5769;47.998;7.788;2023-04-08T07:46:01;1.20;;;1.20;;
11425;SDS011;5769;47.998;7.788;2023-04-08T07:48:37;0.70;;;0.70;;
11425;SDS011;5769;47.998;7.788;2023-04-08T07:51:11;0.75;;;0.75;;
11425;SDS011;5769;47.998;7.788;2023-04-08T07:53:49;0.77;;;0.77;;
11425;SDS011;5769;47.998;7.788;2023-04-08T07:56:23;0.93;;;0.93;;
11425;SDS011;5769;47.998;7.788;2023-04-08T07:58:51;0.93;;;0.93;;
11425;SDS011;5769;47.998;7.788;2023-04-08T08:01:19;0.95;;;0.95;;
11425;SDS011;5769;47.998;7.788;2023-04-08T08:03:47;1.33;;;1.33;;
11425;SDS011;5769;47.998;7.788;2023-04-08T08:06:20;1.17;;;1.17;;
11425;SDS011;5769;47.998;7.788;2023-04-08T08:08:51;1.10;;;1.10;;
11425;SDS011;5769;47.998;7.788;2023-04-08T08:11:18;1.00;;;1.00;;
11425;SDS011;5769;47.998;7.788;2023-04-08T08:13:46;1.25;;;1.25;;
11425;SDS011;5769;47.998;7.788;2023-04-08T08:16:17;1.17;;;1.17;;
11425;SDS011;5769;47.998;7.788;2023-04-08T08:18:48;1.63;;;1.63;;
11425;SDS011;5769;47.998;7.788;2023-04-08T08:21:18;1.17;;;1.17;;
11425;SDS011;5769;47.998;7.788;2023-04-08T08:23:47;1.58;;;1.58;;
11425;SDS011;5769;47.998;7.788;2023-04-08T08:26:20;1.92;;;1.83;;
11425;SDS011;5769;47.998;7.788;2023-04-08T08:28:50;1.38;;;1.38;;
11425;SDS011;5769;47.998;7.788;2023-04-08T08:31:34;1.92;;;1.83;;
11425;SDS011;5769;47.998;7.788;2023-04-08T08:34:02;0.88;;;0.88;;
11425;SDS011;5769;47.998;7.788;2023-04-08T08:36:47;1.35;;;1.35;;
11425;SDS011;5769;47.998;7.788;2023-04-08T08:39:37;1.15;;;1.15;;
11425;SDS011;5769;47.998;7.788;2023-04-08T08:42:08;1.70;;;1.60;;
11425;SDS011;5769;47.998;7.788;2023-04-08T08:44:51;1.70;;;1.70;;
11425;SDS011;5769;47.998;7.788;2023-04-08T08:47:32;1.77;;;1.77;;
11425;SDS011;5769;47.998;7.788;2023-04-08T08:49:59;1.55;;;1.55;;
11425;SDS011;5769;47.998;7.788;2023-04-08T08:52:34;1.35;;;1.35;;
11425;SDS011;5769;47.998;7.788;2023-04-08T08:55:05;1.70;;;1.70;;
11425;SDS011;5769;47.998;7.788;2023-04-08T08:57:42;0.40;;;0.40;;
11425;SDS011;5769;47.998;7.788;2023-04-08T09:00:13;0.55;;;0.55;;
11425;SDS011;5769;47.998;7.788;2023-04-08T09:02:49;0.70;;;0.70;;
11425;SDS011;5769;47.998;7.788;2023-04-08T09:05:20;0.90;;;0.90;;
11425;SDS011;5769;47.998;7.788;2023-04-08T09:08:05;1.05;;;1.05;;
11425;SDS011;5769;47.998;7.788;2023-04-08T09:10:50;0.93;;;0.93;;
11425;SDS011;5769;47.998;7.788;2023-04-08T09:13:21;0.88;;;0.88;;
11425;SDS011;5769;47.998;7.788;2023-04-08T09:15:59;0.95;;;0.95;;
11425;SDS011;5769;47.998;7.788;2023-04-08T09:18:27;0.80;;;0.80;;
11425;SDS011;5769;47.998;7.788;2023-04-08T09:20:58;1.75;;;1.65;;
11425;SDS011;5769;47.998;7.788;2023-04-08T09:23:42;1.33;;;1.33;;
11425;SDS011;5769;47.998;7.788;2023-04-08T09:26:16;0.75;;;0.75;;
11425;SDS011;5769;47.998;7.788;2023-04-08T09:28:58;0.80;;;0.80;;
11425;SDS011;5769;47.998;7.788;2023-04-08T09:31:25;1.73;;;1.63;;
11425;SDS011;5769;47.998;7.788;2023-04-08T09:33:56;1.02;;;1.02;;
11425;SDS011;5769;47.998;7.788;2023-04-08T09:36:24;1.42;;;1.42;;
11425;SDS011;5769;47.998;7.788;2023-04-08T09:39:00;1.13;;;1.13;;
11425;SDS011;5769;47.998;7.788;2023-04-08T09:41:37;1.48;;;1.48;;
11425;SDS011;5769;47.998;7.788;2023-04-08T09:44:10;1.20;;;1.20;;
11425;SDS011;5769;47.998;7.788;2023-04-08T09:46:49;1.77;;;1.77;;
11425;SDS011;5769;47.998;7.788;2023-04-08T09:49:22;1.75;;;1.75;;
11425;SDS011;5769;47.998;7.788;2023-04-08T09:51:53;2.13;;;2.03;;
11425;SDS011;5769;47.998;7.788;2023-04-08T09:54:30;1.60;;;1.60;;
11425;SDS011;5769;47.998;7.788;2023-04-08T09:57:03;1.30;;;1.30;;
11425;SDS011;5769;47.998;7.788;2023-04-08T09:59:32;1.40;;;1.40;;
11425;SDS011;5769;47.998;7.788;2023-04-08T10:02:02;1.20;;;1.20;;
11425;SDS011;5769;47.998;7.788;2023-04-08T10:04:34;1.83;;;1.73;;
11425;SDS011;5769;47.998;7.788;2023-04-08T10:07:05;1.45;;;1.45;;
11425;SDS011;5769;47.998;7.788;2023-04-08T10:09:35;1.48;;;1.48;;
11425;SDS011;5769;47.998;7.788;2023-04-08T10:12:08;2.05;;;1.95;;
11425;SDS011;5769;47.998;7.788;2023-04-08T10:14:36;1.92;;;1.83;;
11425;SDS011;5769;47.998;7.788;2023-04-08T10:20:01;1.55;;;1.55;;
11425;SDS011;5769;47.998;7.788;2023-04-08T10:22:45;2.17;;;2.08;;
11425;SDS011;5769;47.998;7.788;2023-04-08T10:25:33;1.65;;;1.65;;
11425;SDS011;5769;47.998;7.788;2023-04-08T10:30:49;1.65;;;1.65;;
11425;SDS011;5769;47.998;7.788;2023-04-08T10:33:20;1.55;;;1.55;;
11425;SDS011;5769;47.998;7.788;2023-04-08T10:35:52;1.63;;;1.58;;
11425;SDS011;5769;47.998;7.788;2023-04-08T10:38:20;2.08;;;1.98;;
11425;SDS011;5769;47.998;7.788;2023-04-08T10:40:49;2.13;;;2.03;;
11425;SDS011;5769;47.998;7.788;2023-04-08T10:43:19;1.80;;;1.75;;
11425;SDS011;5769;47.998;7.788;2023-04-08T10:45:48;1.75;;;1.75;;
11425;SDS011;5769;47.998;7.788;2023-04-08T10:48:17;1.95;;;1.85;;
11425;SDS011;5769;47.998;7.788;2023-04-08T10:50:54;2.00;;;1.90;;
11425;SDS011;5769;47.998;7.788;2023-04-08T10:53:25;1.95;;;1.85;;
11425;SDS011;5769;47.998;7.788;2023-04-08T10:56:06;1.75;;;1.75;;
11425;SDS011;5769;47.998;7.788;2023-04-08T10:58:46;1.95;;;1.85;;
11425;SDS011;5769;47.998;7.788;2023-04-08T11:01:14;1.67;;;1.58;;
11425;SDS011;5769;47.998;7.788;2023-04-08T11:03:45;1.45;;;1.45;;
11425;SDS011;5769;47.998;7.788;2023-04-08T11:06:16;1.75;;;1.75;;
11425;SDS011;5769;47.998;7.788;2023-04-08T11:08:43;1.67;;;1.67;;
11425;SDS011;5769;47.998;7.788;2023-04-08T11:11:13;0.55;;;0.55;;
11425;SDS011;5769;47.998;7.788;2023-04-08T11:13:45;0.73;;;0.73;;
11425;SDS011;5769;47.998;7.788;2023-04-08T11:16:18;0.80;;;0.80;;
11425;SDS011;5769;47.998;7.788;2023-04-08T11:18:52;1.05;;;1.05;;
11425;SDS011;5769;47.998;7.788;2023-04-08T11:21:24;0.88;;;0.88;;
11425;SDS011;5769;47.998;7.788;2023-04-08T11:23:53;1.35;;;1.35;;
11425;SDS011;5769;47.998;7.788;2023-04-08T11:26:25;0.70;;;0.70;;
11425;SDS011;5769;47.998;7.788;2023-04-08T11:28:53;0.40;;;0.40;;
11425;SDS011;5769;47.998;7.788;2023-04-08T11:31:25;0.50;;;0.50;;
11425;SDS011;5769;47.998;7.788;2023-04-08T11:33:52;0.50;;;0.50;;
11425;SDS011;5769;47.998;7.788;2023-04-08T11:36:20;0.60;;;0.60;;
11425;SDS011;5769;47.998;7.788;2023-04-08T11:38:52;0.60;;;0.60;;
11425;SDS011;5769;47.998;7.788;2023-04-08T11:41:25;0.50;;;0.50;;
11425;SDS011;5769;47.998;7.788;2023-04-08T11:44:05;0.50;;;0.50;;
11425;SDS011;5769;47.998;7.788;2023-04-08T11:46:34;0.73;;;0.73;;
11425;SDS011;5769;47.998;7.788;2023-04-08T11:49:03;0.73;;;0.73;;
11425;SDS011;5769;47.998;7.788;2023-04-08T11:51:53;1.20;;;1.20;;
11425;SDS011;5769;47.998;7.788;2023-04-08T11:54:26;0.65;;;0.65;;
11425;SDS011;5769;47.998;7.788;2023-04-08T11:56:57;0.60;;;0.60;;
11425;SDS011;5769;47.998;7.788;2023-04-08T11:59:35;0.60;;;0.60;;
11425;SDS011;5769;47.998;7.788;2023-04-08T12:02:03;0.65;;;0.65;;
11425;SDS011;5769;47.998;7.788;2023-04-08T12:04:30;0.52;;;0.52;;
11425;SDS011;5769;47.998;7.788;2023-04-08T12:07:04;0.63;;;0.63;;
11425;SDS011;5769;47.998;7.788;2023-04-08T12:09:32;0.65;;;0.65;;
11425;SDS011;5769;47.998;7.788;2023-04-08T12:12:01;0.50;;;0.50;;
11425;SDS011;5769;47.998;7.788;2023-04-08T12:14:28;0.60;;;0.60;;
11425;SDS011;5769;47.998;7.788;2023-04-08T12:17:03;0.52;;;0.52;;
11425;SDS011;5769;47.998;7.788;2023-04-08T12:19:33;0.65;;;0.65;;
11425;SDS011;5769;47.998;7.788;2023-04-08T12:22:14;0.68;;;0.68;;
11425;SDS011;5769;47.998;7.788;2023-04-08T12:24:42;0.75;;;0.75;;
11425;SDS011;5769;47.998;7.788;2023-04-08T12:27:12;0.80;;;0.80;;
11425;SDS011;5769;47.998;7.788;2023-04-08T12:29:43;0.40;;;0.40;;
11425;SDS011;5769;47.998;7.788;2023-04-08T12:32:11;0.35;;;0.35;;
11425;SDS011;5769;47.998;7.788;2023-04-08T12:34:39;0.65;;;0.65;;
11425;SDS011;5769;47.998;7.788;2023-04-08T12:37:06;0.50;;;0.50;;
11425;SDS011;5769;47.998;7.788;2023-04-08T12:39:34;0.45;;;0.45;;
11425;SDS011;5769;47.998;7.788;2023-04-08T12:42:02;0.50;;;0.50;;
11425;SDS011;5769;47.998;7.788;2023-04-08T12:44:32;0.50;;;0.50;;
11425;SDS011;5769;47.998;7.788;2023-04-08T12:47:02;0.52;;;0.52;;
11425;SDS011;5769;47.998;7.788;2023-04-08T12:49:31;0.43;;;0.43;;
11425;SDS011;5769;47.998;7.788;2023-04-08T12:51:59;0.60;;;0.60;;
11425;SDS011;5769;47.998;7.788;2023-04-08T12:54:29;0.60;;;0.60;;
11425;SDS011;5769;47.998;7.788;2023-04-08T12:57:01;0.60;;;0.60;;
11425;SDS011;5769;47.998;7.788;2023-04-08T12:59:45;0.73;;;0.73;;
11425;SDS011;5769;47.998;7.788;2023-04-08T13:02:13;0.50;;;0.50;;
11425;SDS011;5769;47.998;7.788;2023-04-08T13:04:42;0.20;;;0.20;;
11425;SDS011;5769;47.998;7.788;2023-04-08T13:07:12;0.55;;;0.55;;
11425;SDS011;5769;47.998;7.788;2023-04-08T13:09:47;0.77;;;0.77;;
11425;SDS011;5769;47.998;7.788;2023-04-08T13:12:16;0.65;;;0.65;;
11425;SDS011;5769;47.998;7.788;2023-04-08T13:14:45;0.60;;;0.60;;
11425;SDS011;5769;47.998;7.788;2023-04-08T13:17:13;0.75;;;0.75;;
11425;SDS011;5769;47.998;7.788;2023-04-08T13:19:40;0.80;;;0.80;;
11425;SDS011;5769;47.998;7.788;2023-04-08T13:22:08;0.80;;;0.80;;
11425;SDS011;5769;47.998;7.788;2023-04-08T13:24:35;0.73;;;0.73;;
11425;SDS011;5769;47.998;7.788;2023-04-08T13:27:03;1.00;;;1.00;;
11425;SDS011;5769;47.998;7.788;2023-04-08T13:29:32;0.73;;;0.73;;
11425;SDS011;5769;47.998;7.788;2023-04-08T13:32:09;0.57;;;0.57;;
11425;SDS011;5769;47.998;7.788;2023-04-08T13:34:43;0.80;;;0.80;;
11425;SDS011;5769;47.998;7.788;2023-04-08T13:37:13;0.70;;;0.70;;
11425;SDS011;5769;47.998;7.788;2023-04-08T13:39:43;0.68;;;0.68;;
11425;SDS011;5769;47.998;7.788;2023-04-08T13:42:13;0.80;;;0.80;;
11425;SDS011;5769;47.998;7.788;2023-04-08T13:44:47;0.90;;;0.90;;
11425;SDS011;5769;47.998;7.788;2023-04-08T13:47:16;0.68;;;0.68;;
11425;SDS011;5769;47.998;7.788;2023-04-08T13:49:44;0.80;;;0.80;;
11425;SDS011;5769;47.998;7.788;2023-04-08T13:52:18;0.70;;;0.70;;
11425;SDS011;5769;47.998;7.788;2023-04-08T13:55:04;0.75;;;0.75;;
11425;SDS011;5769;47.998;7.788;2023-04-08T13:57:45;0.70;;;0.70;;
11425;SDS011;5769;47.998;7.788;2023-04-08T14:00:24;0.82;;;0.82;;
11425;SDS011;5769;47.998;7.788;2023-04-08T14:03:00;0.93;;;0.93;;
11425;SDS011;5769;47.998;7.788;2023-04-08T14:05:29;0.73;;;0.73;;
11425;SDS011;5769;47.998;7.788;2023-04-08T14:07:59;0.80;;;0.80;;
11425;SDS011;5769;47.998;7.788;2023-04-08T14:10:38;0.80;;;0.80;;
11425;SDS011;5769;47.998;7.788;2023-04-08T14:13:11;0.70;;;0.70;;
11425;SDS011;5769;47.998;7.788;2023-04-08T14:15:43;1.30;;;1.23;;
11425;SDS011;5769;47.998;7.788;2023-04-08T14:18:18;0.80;;;0.80;;
11425;SDS011;5769;47.998;7.788;2023-04-08T14:20:47;0.75;;;0.75;;
11425;SDS011;5769;47.998;7.788;2023-04-08T14:23:20;0.75;;;0.75;;
11425;SDS011;5769;47.998;7.788;2023-04-08T14:25:55;0.70;;;0.70;;
11425;SDS011;5769;47.998;7.788;2023-04-08T14:28:39;0.70;;;0.70;;
11425;SDS011;5769;47.998;7.788;2023-04-08T14:31:31;0.70;;;0.70;;
11425;SDS011;5769;47.998;7.788;2023-04-08T14:34:05;0.70;;;0.70;;
11425;SDS011;5769;47.998;7.788;2023-04-08T14:36:39;0.90;;;0.90;;
11425;SDS011;5769;47.998;7.788;2023-04-08T14:39:09;0.68;;;0.68;;
11425;SDS011;5769;47.998;7.788;2023-04-08T14:41:51;0.88;;;0.88;;
11425;SDS011;5769;47.998;7.788;2023-04-08T14:44:28;0.68;;;0.68;;
11425;SDS011;5769;47.998;7.788;2023-04-08T14:47:01;0.60;;;0.60;;
11425;SDS011;5769;47.998;7.788;2023-04-08T14:49:44;0.70;;;0.70;;
11425;SDS011;5769;47.998;7.788;2023-04-08T14:52:35;0.65;;;0.65;;
11425;SDS011;5769;47.998;7.788;2023-04-08T14:55:10;0.80;;;0.80;;
11425;SDS011;5769;47.998;7.788;2023-04-08T14:57:48;0.60;;;0.60;;
11425;SDS011;5769;47.998;7.788;2023-04-08T15:00:21;0.60;;;0.60;;
11425;SDS011;5769;47.998;7.788;2023-04-08T15:02:53;0.50;;;0.50;;
11425;SDS011;5769;47.998;7.788;2023-04-08T15:05:22;0.60;;;0.60;;
11425;SDS011;5769;47.998;7.788;2023-04-08T15:08:15;0.55;;;0.55;;
11425;SDS011;5769;47.998;7.788;2023-04-08T15:10:56;0.50;;;0.50;;
11425;SDS011;5769;47.998;7.788;2023-04-08T15:13:34;0.50;;;0.50;;
11425;SDS011;5769;47.998;7.788;2023-04-08T15:16:10;0.77;;;0.77;;
11425;SDS011;5769;47.998;7.788;2023-04-08T15:18:42;0.57;;;0.57;;
11425;SDS011;5769;47.998;7.788;2023-04-08T15:21:21;0.50;;;0.50;;
11425;SDS011;5769;47.998;7.788;2023-04-08T15:23:52;0.55;;;0.55;;
11425;SDS011;5769;47.998;7.788;2023-04-08T15:26:26;0.57;;;0.57;;